If you wish to contribute or participate in the discussions about articles you are invited to join SKYbrary as a registered user

 Actions

Alpnach Air Base

From SKYbrary Wiki

LSMA
Airport
ICAO: LSMA
Summary
Name Alpnach Air Base
Region Europe
Territory Switzerland CH.gif
Location Alpnach, Obwalden
Serving Alpnach
Elevation 445.008 m
1,460 ft
1,460 ft445.008 m
Type medium airport
Coordinates 46° 56' 38.0004", 8° 17' 3.0012"
Runways
Designator Length Width Surface ROPS
1/19 1500 m4,921.26 ft 40 m131.234 ft ASP /
METAR
Observation LSMA 111550Z AUTO 04010G20KT 360V080 9999NDV BKN017 OVC037 07/05 Q0986 RMK
Station ALPNACH
Date/Time 11 December 2017 15:50:00
Wind direction 40°
Wind speed 10 kts
Lowest cloud amount broken clouds
Temperature 7°C
Dew point 5°C
Humidity 87%
QNH 986 hPa
Weather condition n/a

Maps

Terrain

Loading map...

Airport Layout

Loading map...


Accidents & Serious Incidents at or in vicinity of LSMA

None on SKYbrary